sensor_id;sensor_type;location;lat;lon;timestamp;pressure;altitude;pressure_sealevel;temperature;humidity
60611;BME280;46439;51.164;13.572;2023-04-15T00:00:51;101148.23;;;8.86;100.00
60611;BME280;46439;51.164;13.572;2023-04-15T00:03:19;101131.92;;;8.84;100.00
60611;BME280;46439;51.164;13.572;2023-04-15T00:05:48;101126.88;;;8.82;100.00
60611;BME280;46439;51.164;13.572;2023-04-15T00:08:17;101128.58;;;8.77;100.00
60611;BME280;46439;51.164;13.572;2023-04-15T00:10:46;101119.27;;;8.75;100.00
60611;BME280;46439;51.164;13.572;2023-04-15T00:13:15;101151.23;;;8.73;100.00
60611;BME280;46439;51.164;13.572;2023-04-15T00:15:43;101189.38;;;8.65;100.00
60611;BME280;46439;51.164;13.572;2023-04-15T00:18:12;101195.73;;;8.67;100.00
60611;BME280;46439;51.164;13.572;2023-04-15T00:20:41;101188.06;;;8.70;100.00
60611;BME280;46439;51.164;13.572;2023-04-15T00:23:09;101154.67;;;8.64;100.00
60611;BME280;46439;51.164;13.572;2023-04-15T00:25:38;101168.56;;;8.76;100.00
60611;BME280;46439;51.164;13.572;2023-04-15T00:28:06;101208.20;;;8.66;100.00
60611;BME280;46439;51.164;13.572;2023-04-15T00:30:35;101187.64;;;8.71;100.00
60611;BME280;46439;51.164;13.572;2023-04-15T00:33:04;101225.48;;;8.75;100.00
60611;BME280;46439;51.164;13.572;2023-04-15T00:35:33;101214.16;;;8.74;100.00
60611;BME280;46439;51.164;13.572;2023-04-15T00:38:03;101216.39;;;8.52;100.00
60611;BME280;46439;51.164;13.572;2023-04-15T00:40:32;101207.22;;;8.38;100.00
60611;BME280;46439;51.164;13.572;2023-04-15T00:43:00;101211.12;;;8.44;100.00
60611;BME280;46439;51.164;13.572;2023-04-15T00:45:30;101200.05;;;8.44;100.00
60611;BME280;46439;51.164;13.572;2023-04-15T00:47:59;101242.97;;;8.45;100.00
60611;BME280;46439;51.164;13.572;2023-04-15T00:50:27;101233.46;;;8.52;100.00
60611;BME280;46439;51.164;13.572;2023-04-15T00:52:56;101202.33;;;8.65;100.00
60611;BME280;46439;51.164;13.572;2023-04-15T00:55:24;101231.02;;;8.63;100.00
60611;BME280;46439;51.164;13.572;2023-04-15T00:57:53;101195.12;;;8.59;100.00
60611;BME280;46439;51.164;13.572;2023-04-15T01:00:22;101178.92;;;8.64;100.00
60611;BME280;46439;51.164;13.572;2023-04-15T01:02:50;101211.98;;;8.59;100.00
60611;BME280;46439;51.164;13.572;2023-04-15T01:05:19;101153.37;;;8.55;100.00
60611;BME280;46439;51.164;13.572;2023-04-15T01:07:48;101187.18;;;8.62;100.00
60611;BME280;46439;51.164;13.572;2023-04-15T01:10:17;101249.81;;;8.59;100.00
60611;BME280;46439;51.164;13.572;2023-04-15T01:12:46;101200.65;;;8.62;100.00
60611;BME280;46439;51.164;13.572;2023-04-15T01:15:15;101231.95;;;8.63;100.00
60611;BME280;46439;51.164;13.572;2023-04-15T01:17:44;101252.97;;;8.65;100.00
60611;BME280;46439;51.164;13.572;2023-04-15T01:20:13;101151.56;;;8.61;100.00
60611;BME280;46439;51.164;13.572;2023-04-15T01:22:43;101233.34;;;8.61;100.00
60611;BME280;46439;51.164;13.572;2023-04-15T01:25:16;101252.86;;;8.66;100.00
60611;BME280;46439;51.164;13.572;2023-04-15T01:27:45;101199.63;;;8.57;100.00
60611;BME280;46439;51.164;13.572;2023-04-15T01:30:14;101166.98;;;8.61;100.00
60611;BME280;46439;51.164;13.572;2023-04-15T01:32:43;101166.14;;;8.58;100.00
60611;BME280;46439;51.164;13.572;2023-04-15T01:35:11;101135.78;;;8.61;100.00
60611;BME280;46439;51.164;13.572;2023-04-15T01:37:40;101114.05;;;8.61;100.00
60611;BME280;46439;51.164;13.572;2023-04-15T01:40:10;101116.70;;;8.61;100.00
60611;BME280;46439;51.164;13.572;2023-04-15T01:42:39;101088.70;;;8.59;100.00
60611;BME280;46439;51.164;13.572;2023-04-15T01:45:09;101076.50;;;8.61;100.00
60611;BME280;46439;51.164;13.572;2023-04-15T01:47:38;101052.28;;;8.61;100.00
60611;BME280;46439;51.164;13.572;2023-04-15T01:50:08;101045.04;;;8.60;100.00
60611;BME280;46439;51.164;13.572;2023-04-15T01:52:37;101033.64;;;8.57;100.00
60611;BME280;46439;51.164;13.572;2023-04-15T01:55:07;101033.61;;;8.59;100.00
60611;BME280;46439;51.164;13.572;2023-04-15T01:57:36;101013.05;;;8.61;100.00
60611;BME280;46439;51.164;13.572;2023-04-15T02:00:07;101001.25;;;8.60;100.00
60611;BME280;46439;51.164;13.572;2023-04-15T02:02:35;100984.54;;;8.60;100.00
60611;BME280;46439;51.164;13.572;2023-04-15T02:05:05;100988.86;;;8.66;100.00
60611;BME280;46439;51.164;13.572;2023-04-15T02:07:33;100955.23;;;8.71;100.00
60611;BME280;46439;51.164;13.572;2023-04-15T02:10:02;100946.24;;;8.77;100.00
60611;BME280;46439;51.164;13.572;2023-04-15T02:12:31;100917.55;;;8.61;100.00
60611;BME280;46439;51.164;13.572;2023-04-15T02:14:59;100898.31;;;8.77;100.00
60611;BME280;46439;51.164;13.572;2023-04-15T02:17:28;100882.54;;;8.71;100.00
60611;BME280;46439;51.164;13.572;2023-04-15T02:19:57;100859.05;;;8.75;100.00
60611;BME280;46439;51.164;13.572;2023-04-15T02:22:26;100863.69;;;8.79;100.00
60611;BME280;46439;51.164;13.572;2023-04-15T02:24:55;100874.37;;;8.76;100.00
60611;BME280;46439;51.164;13.572;2023-04-15T02:27:23;100873.88;;;8.76;100.00
60611;BME280;46439;51.164;13.572;2023-04-15T02:29:52;100882.14;;;8.75;100.00
60611;BME280;46439;51.164;13.572;2023-04-15T02:32:20;100875.67;;;8.77;100.00
60611;BME280;46439;51.164;13.572;2023-04-15T02:34:51;100889.53;;;8.77;100.00
60611;BME280;46439;51.164;13.572;2023-04-15T02:37:20;100888.20;;;8.76;100.00
60611;BME280;46439;51.164;13.572;2023-04-15T02:39:49;100875.59;;;8.74;100.00
60611;BME280;46439;51.164;13.572;2023-04-15T02:42:17;100863.89;;;8.78;100.00
60611;BME280;46439;51.164;13.572;2023-04-15T02:44:48;100858.36;;;8.78;100.00
60611;BME280;46439;51.164;13.572;2023-04-15T02:47:17;100928.14;;;8.79;100.00
60611;BME280;46439;51.164;13.572;2023-04-15T02:49:45;100982.30;;;8.79;100.00
60611;BME280;46439;51.164;13.572;2023-04-15T02:52:14;100963.73;;;8.86;100.00
60611;BME280;46439;51.164;13.572;2023-04-15T02:54:42;100954.66;;;8.85;100.00
60611;BME280;46439;51.164;13.572;2023-04-15T02:57:11;100898.21;;;8.80;100.00
60611;BME280;46439;51.164;13.572;2023-04-15T02:59:40;100855.34;;;8.70;100.00
60611;BME280;46439;51.164;13.572;2023-04-15T03:02:08;101066.98;;;8.65;100.00
60611;BME280;46439;51.164;13.572;2023-04-15T03:04:37;101062.98;;;8.64;100.00
60611;BME280;46439;51.164;13.572;2023-04-15T03:07:05;100950.16;;;8.70;100.00
60611;BME280;46439;51.164;13.572;2023-04-15T03:09:33;100865.85;;;8.71;100.00
60611;BME280;46439;51.164;13.572;2023-04-15T03:12:02;100832.59;;;8.72;100.00
60611;BME280;46439;51.164;13.572;2023-04-15T03:14:31;100805.54;;;8.65;100.00
60611;BME280;46439;51.164;13.572;2023-04-15T03:16:59;100782.27;;;8.82;100.00
60611;BME280;46439;51.164;13.572;2023-04-15T03:19:28;100767.78;;;8.72;100.00
60611;BME280;46439;51.164;13.572;2023-04-15T03:21:56;100757.70;;;8.68;100.00
60611;BME280;46439;51.164;13.572;2023-04-15T03:24:25;100728.31;;;8.70;100.00
60611;BME280;46439;51.164;13.572;2023-04-15T03:26:54;100744.44;;;8.74;100.00
60611;BME280;46439;51.164;13.572;2023-04-15T03:29:23;100754.13;;;8.81;100.00
60611;BME280;46439;51.164;13.572;2023-04-15T03:31:52;100755.15;;;8.88;100.00
60611;BME280;46439;51.164;13.572;2023-04-15T03:34:21;100752.17;;;8.87;100.00
60611;BME280;46439;51.164;13.572;2023-04-15T03:36:50;100722.02;;;8.79;100.00
60611;BME280;46439;51.164;13.572;2023-04-15T03:39:18;100699.37;;;8.67;100.00
60611;BME280;46439;51.164;13.572;2023-04-15T03:41:47;100679.21;;;8.63;100.00
60611;BME280;46439;51.164;13.572;2023-04-15T03:44:15;100658.50;;;8.87;100.00
60611;BME280;46439;51.164;13.572;2023-04-15T03:46:44;100639.58;;;8.95;100.00
60611;BME280;46439;51.164;13.572;2023-04-15T03:49:14;100601.75;;;8.98;100.00
60611;BME280;46439;51.164;13.572;2023-04-15T03:51:43;100582.89;;;9.00;100.00
60611;BME280;46439;51.164;13.572;2023-04-15T03:54:11;100587.61;;;9.05;100.00
60611;BME280;46439;51.164;13.572;2023-04-15T03:56:42;100574.91;;;9.06;100.00
60611;BME280;46439;51.164;13.572;2023-04-15T03:59:10;100564.92;;;9.04;100.00
60611;BME280;46439;51.164;13.572;2023-04-15T04:01:39;100579.59;;;8.89;100.00
60611;BME280;46439;51.164;13.572;2023-04-15T04:04:07;100566.77;;;8.90;100.00
60611;BME280;46439;51.164;13.572;2023-04-15T04:06:36;100578.84;;;8.75;100.00
60611;BME280;46439;51.164;13.572;2023-04-15T04:09:04;100579.34;;;8.69;100.00
60611;BME280;46439;51.164;13.572;2023-04-15T04:11:33;100576.99;;;8.65;100.00
60611;BME280;46439;51.164;13.572;2023-04-15T04:14:02;100572.41;;;8.62;100.00
60611;BME280;46439;51.164;13.572;2023-04-15T04:16:30;100626.02;;;8.64;100.00
60611;BME280;46439;51.164;13.572;2023-04-15T04:18:59;100721.39;;;8.86;100.00
60611;BME280;46439;51.164;13.572;2023-04-15T04:21:28;100731.59;;;8.81;100.00
60611;BME280;46439;51.164;13.572;2023-04-15T04:23:56;100738.18;;;8.77;100.00
60611;BME280;46439;51.164;13.572;2023-04-15T04:26:26;100742.05;;;8.89;100.00
60611;BME280;46439;51.164;13.572;2023-04-15T04:28:54;100704.73;;;9.20;100.00
60611;BME280;46439;51.164;13.572;2023-04-15T04:31:23;100691.09;;;9.10;100.00
60611;BME280;46439;51.164;13.572;2023-04-15T04:33:52;100678.90;;;9.00;100.00
60611;BME280;46439;51.164;13.572;2023-04-15T04:36:20;100667.31;;;8.97;100.00
60611;BME280;46439;51.164;13.572;2023-04-15T04:38:49;100661.45;;;8.99;100.00
60611;BME280;46439;51.164;13.572;2023-04-15T04:41:18;100642.95;;;8.93;100.00
60611;BME280;46439;51.164;13.572;2023-04-15T04:43:46;100598.51;;;8.92;100.00
60611;BME280;46439;51.164;13.572;2023-04-15T04:46:15;100605.59;;;8.92;100.00
60611;BME280;46439;51.164;13.572;2023-04-15T04:48:43;100584.34;;;8.87;100.00
60611;BME280;46439;51.164;13.572;2023-04-15T04:51:12;100578.02;;;8.85;100.00
60611;BME280;46439;51.164;13.572;2023-04-15T04:53:40;100575.52;;;8.78;100.00
60611;BME280;46439;51.164;13.572;2023-04-15T04:56:10;100556.35;;;8.92;100.00
60611;BME280;46439;51.164;13.572;2023-04-15T04:58:38;100578.73;;;9.02;100.00
60611;BME280;46439;51.164;13.572;2023-04-15T05:01:07;100573.15;;;8.89;100.00
60611;BME280;46439;51.164;13.572;2023-04-15T05:03:37;100604.56;;;8.91;100.00
60611;BME280;46439;51.164;13.572;2023-04-15T05:06:05;100611.09;;;9.02;100.00
60611;BME280;46439;51.164;13.572;2023-04-15T05:08:35;100603.02;;;9.18;100.00
60611;BME280;46439;51.164;13.572;2023-04-15T05:11:05;100594.95;;;9.34;100.00
60611;BME280;46439;51.164;13.572;2023-04-15T05:13:34;100592.64;;;9.33;100.00
60611;BME280;46439;51.164;13.572;2023-04-15T05:16:06;100581.34;;;9.37;100.00
60611;BME280;46439;51.164;13.572;2023-04-15T05:18:35;100598.15;;;9.41;100.00
60611;BME280;46439;51.164;13.572;2023-04-15T05:21:05;100605.00;;;9.42;100.00
60611;BME280;46439;51.164;13.572;2023-04-15T05:23:34;100663.41;;;9.48;100.00
60611;BME280;46439;51.164;13.572;2023-04-15T05:26:03;100561.70;;;9.48;100.00
60611;BME280;46439;51.164;13.572;2023-04-15T05:28:32;100558.20;;;9.63;100.00
60611;BME280;46439;51.164;13.572;2023-04-15T05:31:00;100553.05;;;9.71;100.00
60611;BME280;46439;51.164;13.572;2023-04-15T05:33:30;100526.38;;;9.89;100.00
60611;BME280;46439;51.164;13.572;2023-04-15T05:35:58;100559.87;;;9.87;100.00
60611;BME280;46439;51.164;13.572;2023-04-15T05:38:27;100575.84;;;9.78;100.00
60611;BME280;46439;51.164;13.572;2023-04-15T05:40:56;100582.23;;;10.02;100.00
60611;BME280;46439;51.164;13.572;2023-04-15T05:43:24;100560.60;;;10.02;100.00
60611;BME280;46439;51.164;13.572;2023-04-15T05:45:53;100539.39;;;10.11;100.00
60611;BME280;46439;51.164;13.572;2023-04-15T05:48:22;100492.99;;;10.19;100.00
60611;BME280;46439;51.164;13.572;2023-04-15T05:50:50;100442.88;;;10.22;100.00
60611;BME280;46439;51.164;13.572;2023-04-15T05:53:18;100458.40;;;9.94;100.00
60611;BME280;46439;51.164;13.572;2023-04-15T05:55:47;100507.29;;;9.88;100.00
60611;BME280;46439;51.164;13.572;2023-04-15T05:58:16;100473.73;;;10.01;100.00
60611;BME280;46439;51.164;13.572;2023-04-15T06:00:44;100492.77;;;10.04;100.00
60611;BME280;46439;51.164;13.572;2023-04-15T06:03:13;100605.73;;;10.06;100.00
60611;BME280;46439;51.164;13.572;2023-04-15T06:05:42;100521.02;;;10.19;100.00
60611;BME280;46439;51.164;13.572;2023-04-15T06:08:12;100539.66;;;10.22;100.00
60611;BME280;46439;51.164;13.572;2023-04-15T06:10:41;100549.41;;;10.30;100.00
60611;BME280;46439;51.164;13.572;2023-04-15T06:13:09;100557.21;;;10.38;100.00
60611;BME280;46439;51.164;13.572;2023-04-15T06:15:38;100554.91;;;10.35;100.00
60611;BME280;46439;51.164;13.572;2023-04-15T06:18:06;100540.11;;;10.33;100.00
60611;BME280;46439;51.164;13.572;2023-04-15T06:20:35;100527.86;;;10.45;100.00
60611;BME280;46439;51.164;13.572;2023-04-15T06:23:04;100512.17;;;10.37;100.00
60611;BME280;46439;51.164;13.572;2023-04-15T06:25:32;100523.95;;;10.53;100.00
60611;BME280;46439;51.164;13.572;2023-04-15T06:28:01;100485.61;;;10.72;100.00
60611;BME280;46439;51.164;13.572;2023-04-15T06:30:29;100518.75;;;10.71;100.00
60611;BME280;46439;51.164;13.572;2023-04-15T06:32:58;100522.97;;;10.71;100.00
60611;BME280;46439;51.164;13.572;2023-04-15T06:35:27;100605.17;;;10.70;100.00
60611;BME280;46439;51.164;13.572;2023-04-15T06:37:55;100644.46;;;10.69;100.00
60611;BME280;46439;51.164;13.572;2023-04-15T06:40:24;100673.36;;;10.75;100.00
60611;BME280;46439;51.164;13.572;2023-04-15T06:42:53;100689.84;;;10.62;100.00
60611;BME280;46439;51.164;13.572;2023-04-15T06:45:22;100716.71;;;10.86;100.00
60611;BME280;46439;51.164;13.572;2023-04-15T06:47:51;100684.61;;;10.81;100.00
60611;BME280;46439;51.164;13.572;2023-04-15T06:50:20;100700.75;;;10.70;100.00
60611;BME280;46439;51.164;13.572;2023-04-15T06:52:48;100664.54;;;10.72;100.00
60611;BME280;46439;51.164;13.572;2023-04-15T06:55:17;100639.91;;;10.61;100.00
60611;BME280;46439;51.164;13.572;2023-04-15T06:57:45;100666.05;;;10.57;100.00
60611;BME280;46439;51.164;13.572;2023-04-15T07:00:15;100637.17;;;10.56;100.00
60611;BME280;46439;51.164;13.572;2023-04-15T07:02:44;100606.78;;;10.63;100.00
60611;BME280;46439;51.164;13.572;2023-04-15T07:05:13;100604.36;;;10.52;100.00
60611;BME280;46439;51.164;13.572;2023-04-15T07:07:42;100745.27;;;10.66;100.00
60611;BME280;46439;51.164;13.572;2023-04-15T07:10:11;100606.98;;;10.83;100.00
60611;BME280;46439;51.164;13.572;2023-04-15T07:12:40;100541.92;;;10.67;100.00
60611;BME280;46439;51.164;13.572;2023-04-15T07:15:12;100405.59;;;10.77;100.00
60611;BME280;46439;51.164;13.572;2023-04-15T07:17:49;100410.13;;;10.69;100.00
60611;BME280;46439;51.164;13.572;2023-04-15T07:20:32;100416.03;;;10.72;100.00
60611;BME280;46439;51.164;13.572;2023-04-15T07:23:01;100418.49;;;10.65;100.00
60611;BME280;46439;51.164;13.572;2023-04-15T07:25:31;100406.99;;;10.63;100.00
60611;BME280;46439;51.164;13.572;2023-04-15T07:28:05;100397.21;;;10.67;100.00
60611;BME280;46439;51.164;13.572;2023-04-15T07:30:46;100414.59;;;10.79;100.00
60611;BME280;46439;51.164;13.572;2023-04-15T07:33:14;100484.36;;;10.73;100.00
60611;BME280;46439;51.164;13.572;2023-04-15T07:35:43;100522.11;;;10.82;100.00
60611;BME280;46439;51.164;13.572;2023-04-15T07:38:12;100493.68;;;10.97;100.00
60611;BME280;46439;51.164;13.572;2023-04-15T07:40:41;100463.19;;;11.22;100.00
60611;BME280;46439;51.164;13.572;2023-04-15T07:43:09;100462.81;;;11.32;100.00
60611;BME280;46439;51.164;13.572;2023-04-15T07:45:38;100438.23;;;11.31;100.00
60611;BME280;46439;51.164;13.572;2023-04-15T07:48:07;100458.30;;;10.99;100.00
60611;BME280;46439;51.164;13.572;2023-04-15T07:50:35;100462.86;;;10.94;100.00
60611;BME280;46439;51.164;13.572;2023-04-15T07:53:04;100495.05;;;10.89;100.00
60611;BME280;46439;51.164;13.572;2023-04-15T07:55:33;100544.65;;;10.99;100.00
60611;BME280;46439;51.164;13.572;2023-04-15T07:58:02;100537.71;;;11.23;100.00
60611;BME280;46439;51.164;13.572;2023-04-15T08:00:30;100520.32;;;11.33;100.00
60611;BME280;46439;51.164;13.572;2023-04-15T08:02:59;100483.85;;;11.38;100.00
60611;BME280;46439;51.164;13.572;2023-04-15T08:05:27;100530.30;;;11.38;100.00
60611;BME280;46439;51.164;13.572;2023-04-15T08:07:57;100506.14;;;11.39;100.00
60611;BME280;46439;51.164;13.572;2023-04-15T08:10:25;100481.45;;;11.38;100.00
60611;BME280;46439;51.164;13.572;2023-04-15T08:12:54;100454.30;;;11.40;100.00
60611;BME280;46439;51.164;13.572;2023-04-15T08:15:24;100439.70;;;11.43;100.00
60611;BME280;46439;51.164;13.572;2023-04-15T08:17:53;100450.69;;;11.45;100.00
60611;BME280;46439;51.164;13.572;2023-04-15T08:20:22;100471.80;;;11.47;100.00
60611;BME280;46439;51.164;13.572;2023-04-15T08:22:56;100516.92;;;11.48;100.00
60611;BME280;46439;51.164;13.572;2023-04-15T08:25:36;100562.73;;;11.23;100.00
60611;BME280;46439;51.164;13.572;2023-04-15T08:28:06;100685.94;;;11.32;100.00
60611;BME280;46439;51.164;13.572;2023-04-15T08:30:45;100693.98;;;11.55;100.00
60611;BME280;46439;51.164;13.572;2023-04-15T08:33:30;100764.79;;;11.71;100.00
60611;BME280;46439;51.164;13.572;2023-04-15T08:36:12;100807.06;;;11.77;100.00
60611;BME280;46439;51.164;13.572;2023-04-15T08:38:51;100826.14;;;11.77;100.00
60611;BME280;46439;51.164;13.572;2023-04-15T08:41:28;100880.66;;;11.70;100.00
60611;BME280;46439;51.164;13.572;2023-04-15T08:46:59;100897.33;;;11.36;100.00
60611;BME280;46439;51.164;13.572;2023-04-15T08:49:35;100857.73;;;11.70;100.00
60611;BME280;46439;51.164;13.572;2023-04-15T08:52:22;100855.05;;;11.56;100.00
60611;BME280;46439;51.164;13.572;2023-04-15T08:55:01;100815.00;;;11.77;100.00
60611;BME280;46439;51.164;13.572;2023-04-15T08:57:41;100796.20;;;11.71;100.00
60611;BME280;46439;51.164;13.572;2023-04-15T09:00:26;100882.69;;;11.61;100.00
60611;BME280;46439;51.164;13.572;2023-04-15T09:03:01;100771.13;;;11.66;100.00
60611;BME280;46439;51.164;13.572;2023-04-15T09:05:36;100647.38;;;11.91;100.00
60611;BME280;46439;51.164;13.572;2023-04-15T09:08:12;100627.56;;;12.02;100.00
60611;BME280;46439;51.164;13.572;2023-04-15T09:10:54;100628.29;;;12.09;100.00
60611;BME280;46439;51.164;13.572;2023-04-15T09:13:34;100629.70;;;11.73;100.00
60611;BME280;46439;51.164;13.572;2023-04-15T09:16:18;100592.58;;;11.99;100.00
60611;BME280;46439;51.164;13.572;2023-04-15T09:18:52;100571.77;;;12.10;100.00
60611;BME280;46439;51.164;13.572;2023-04-15T09:21:21;100577.48;;;12.11;100.00
60611;BME280;46439;51.164;13.572;2023-04-15T09:24:02;100531.61;;;12.18;100.00
60611;BME280;46439;51.164;13.572;2023-04-15T09:26:39;100558.30;;;12.29;100.00
60611;BME280;46439;51.164;13.572;2023-04-15T09:29:13;100565.22;;;12.27;100.00
60611;BME280;46439;51.164;13.572;2023-04-15T09:31:56;100604.13;;;11.92;100.00
60611;BME280;46439;51.164;13.572;2023-04-15T09:34:42;100730.25;;;11.83;100.00
60611;BME280;46439;51.164;13.572;2023-04-15T09:37:39;100644.48;;;11.88;100.00
60611;BME280;46439;51.164;13.572;2023-04-15T09:40:35;100617.72;;;11.93;100.00
60611;BME280;46439;51.164;13.572;2023-04-15T09:43:09;100718.25;;;12.07;100.00
60611;BME280;46439;51.164;13.572;2023-04-15T09:45:52;100701.73;;;12.25;100.00
60611;BME280;46439;51.164;13.572;2023-04-15T09:48:31;100676.64;;;12.31;100.00
60611;BME280;46439;51.164;13.572;2023-04-15T09:51:04;100676.45;;;12.43;100.00
60611;BME280;46439;51.164;13.572;2023-04-15T09:53:36;100686.91;;;12.51;100.00
60611;BME280;46439;51.164;13.572;2023-04-15T09:56:15;100659.84;;;12.70;100.00
60611;BME280;46439;51.164;13.572;2023-04-15T09:58:45;100756.58;;;12.70;100.00
60611;BME280;46439;51.164;13.572;2023-04-15T10:01:21;100789.80;;;12.82;100.00
60611;BME280;46439;51.164;13.572;2023-04-15T10:03:57;100823.05;;;12.88;100.00
60611;BME280;46439;51.164;13.572;2023-04-15T10:06:31;100754.63;;;13.01;100.00
60611;BME280;46439;51.164;13.572;2023-04-15T10:09:03;100795.89;;;13.07;100.00
60611;BME280;46439;51.164;13.572;2023-04-15T10:11:41;100844.25;;;13.03;100.00
60611;BME280;46439;51.164;13.572;2023-04-15T10:14:19;100884.37;;;13.08;100.00
60611;BME280;46439;51.164;13.572;2023-04-15T10:16:49;101097.30;;;13.10;100.00
60611;BME280;46439;51.164;13.572;2023-04-15T10:19:19;101323.55;;;13.20;100.00
60611;BME280;46439;51.164;13.572;2023-04-15T10:21:49;101549.49;;;13.24;100.00
60611;BME280;46439;51.164;13.572;2023-04-15T10:24:18;101709.15;;;13.24;100.00
60611;BME280;46439;51.164;13.572;2023-04-15T10:26:47;101809.64;;;13.26;100.00
60611;BME280;46439;51.164;13.572;2023-04-15T10:29:17;101856.84;;;13.24;100.00
60611;BME280;46439;51.164;13.572;2023-04-15T10:31:46;101710.24;;;13.15;100.00
60611;BME280;46439;51.164;13.572;2023-04-15T10:34:16;101622.17;;;13.04;100.00
60611;BME280;46439;51.164;13.572;2023-04-15T10:36:44;101634.14;;;13.00;100.00
60611;BME280;46439;51.164;13.572;2023-04-15T10:39:41;101615.20;;;12.83;100.00
60611;BME280;46439;51.164;13.572;2023-04-15T10:42:11;101613.19;;;12.68;100.00
60611;BME280;46439;51.164;13.572;2023-04-15T10:44:43;101779.57;;;12.50;100.00
60611;BME280;46439;51.164;13.572;2023-04-15T10:47:13;101690.83;;;12.53;100.00
60611;BME280;46439;51.164;13.572;2023-04-15T10:49:47;101658.27;;;12.48;100.00
60611;BME280;46439;51.164;13.572;2023-04-15T10:52:17;101948.95;;;12.44;100.00
60611;BME280;46439;51.164;13.572;2023-04-15T10:54:50;101994.41;;;12.39;100.00
60611;BME280;46439;51.164;13.572;2023-04-15T10:57:36;101983.75;;;12.35;100.00
60611;BME280;46439;51.164;13.572;2023-04-15T11:00:13;101992.20;;;12.31;100.00
60611;BME280;46439;51.164;13.572;2023-04-15T11:02:51;101964.45;;;12.31;100.00
60611;BME280;46439;51.164;13.572;2023-04-15T11:05:21;101913.16;;;12.33;100.00
60611;BME280;46439;51.164;13.572;2023-04-15T11:07:52;101949.29;;;12.43;100.00
60611;BME280;46439;51.164;13.572;2023-04-15T11:10:52;101889.49;;;12.51;100.00
60611;BME280;46439;51.164;13.572;2023-04-15T11:13:27;101870.71;;;12.56;100.00
60611;BME280;46439;51.164;13.572;2023-04-15T11:16:02;101874.84;;;12.55;100.00
60611;BME280;46439;51.164;13.572;2023-04-15T11:18:34;101917.09;;;12.41;100.00
60611;BME280;46439;51.164;13.572;2023-04-15T11:21:02;101930.01;;;12.36;100.00
60611;BME280;46439;51.164;13.572;2023-04-15T11:23:36;101919.23;;;12.43;100.00
60611;BME280;46439;51.164;13.572;2023-04-15T11:26:07;101926.53;;;12.33;100.00
60611;BME280;46439;51.164;13.572;2023-04-15T11:28:43;101927.91;;;12.12;100.00
60611;BME280;46439;51.164;13.572;2023-04-15T11:31:13;101903.57;;;12.10;100.00
60611;BME280;46439;51.164;13.572;2023-04-15T11:33:54;101930.95;;;12.08;100.00
60611;BME280;46439;51.164;13.572;2023-04-15T11:36:26;101950.14;;;12.03;100.00
60611;BME280;46439;51.164;13.572;2023-04-15T11:38:56;101944.17;;;12.04;100.00
60611;BME280;46439;51.164;13.572;2023-04-15T11:41:25;101916.49;;;12.38;100.00
60611;BME280;46439;51.164;13.572;2023-04-15T11:43:53;101952.91;;;12.48;100.00
60611;BME280;46439;51.164;13.572;2023-04-15T11:46:29;101919.20;;;12.54;100.00
60611;BME280;46439;51.164;13.572;2023-04-15T11:48:58;101906.16;;;12.50;100.00
60611;BME280;46439;51.164;13.572;2023-04-15T11:51:33;101906.30;;;12.47;100.00
60611;BME280;46439;51.164;13.572;2023-04-15T11:54:01;101944.63;;;12.52;100.00
60611;BME280;46439;51.164;13.572;2023-04-15T11:56:30;101945.64;;;12.55;100.00
60611;BME280;46439;51.164;13.572;2023-04-15T11:58:59;101948.80;;;12.58;100.00
60611;BME280;46439;51.164;13.572;2023-04-15T12:01:35;101966.80;;;12.66;100.00
60611;BME280;46439;51.164;13.572;2023-04-15T12:04:11;102023.34;;;12.72;100.00
60611;BME280;46439;51.164;13.572;2023-04-15T12:06:40;102010.09;;;12.82;100.00
60611;BME280;46439;51.164;13.572;2023-04-15T12:09:11;101972.35;;;12.76;100.00
60611;BME280;46439;51.164;13.572;2023-04-15T12:11:42;101993.17;;;12.60;100.00
60611;BME280;46439;51.164;13.572;2023-04-15T12:14:15;101982.85;;;12.64;100.00
60611;BME280;46439;51.164;13.572;2023-04-15T12:16:45;101984.51;;;12.74;100.00
60611;BME280;46439;51.164;13.572;2023-04-15T12:19:19;101971.91;;;12.66;100.00
60611;BME280;46439;51.164;13.572;2023-04-15T12:21:50;101941.42;;;12.94;100.00
60611;BME280;46439;51.164;13.572;2023-04-15T12:24:22;101973.55;;;13.08;100.00
60611;BME280;46439;51.164;13.572;2023-04-15T12:26:52;101960.41;;;12.96;100.00
60611;BME280;46439;51.164;13.572;2023-04-15T12:29:24;101942.07;;;13.01;100.00
60611;BME280;46439;51.164;13.572;2023-04-15T12:31:52;101902.52;;;13.15;100.00
60611;BME280;46439;51.164;13.572;2023-04-15T12:34:27;101895.48;;;13.17;100.00
60611;BME280;46439;51.164;13.572;2023-04-15T12:36:57;101903.11;;;13.13;100.00
60611;BME280;46439;51.164;13.572;2023-04-15T12:39:27;101851.76;;;13.10;100.00
60611;BME280;46439;51.164;13.572;2023-04-15T12:41:56;101860.61;;;12.75;100.00
60611;BME280;46439;51.164;13.572;2023-04-15T12:44:26;101835.66;;;12.83;100.00
60611;BME280;46439;51.164;13.572;2023-04-15T12:46:56;101846.16;;;12.69;100.00
60611;BME280;46439;51.164;13.572;2023-04-15T12:49:24;101860.71;;;12.80;100.00
60611;BME280;46439;51.164;13.572;2023-04-15T12:51:56;101861.79;;;12.76;100.00
60611;BME280;46439;51.164;13.572;2023-04-15T12:54:25;101820.02;;;12.69;100.00
60611;BME280;46439;51.164;13.572;2023-04-15T12:56:54;101808.41;;;12.66;100.00